sensor_id;sensor_type;location;lat;lon;timestamp;temperature;humidity
3756;DHT22;1893;52.526;13.360;2022-07-19T00:01:33;20.30;99.10
3756;DHT22;1893;52.526;13.360;2022-07-19T00:03:58;20.30;99.90
3756;DHT22;1893;52.526;13.360;2022-07-19T00:06:24;20.30;99.90
3756;DHT22;1893;52.526;13.360;2022-07-19T00:08:50;20.30;99.90
3756;DHT22;1893;52.526;13.360;2022-07-19T00:11:15;20.30;99.90
3756;DHT22;1893;52.526;13.360;2022-07-19T00:13:41;20.40;99.90
3756;DHT22;1893;52.526;13.360;2022-07-19T00:16:06;20.30;99.90
3756;DHT22;1893;52.526;13.360;2022-07-19T00:18:32;20.20;99.90
3756;DHT22;1893;52.526;13.360;2022-07-19T00:20:57;20.20;99.90
3756;DHT22;1893;52.526;13.360;2022-07-19T00:23:23;20.10;99.90
3756;DHT22;1893;52.526;13.360;2022-07-19T00:25:48;20.10;99.90
3756;DHT22;1893;52.526;13.360;2022-07-19T00:28:14;20.10;99.90
3756;DHT22;1893;52.526;13.360;2022-07-19T00:30:39;20.10;99.90
3756;DHT22;1893;52.526;13.360;2022-07-19T00:33:05;20.10;99.90
3756;DHT22;1893;52.526;13.360;2022-07-19T00:35:34;20.10;99.90
3756;DHT22;1893;52.526;13.360;2022-07-19T00:38:05;20.00;99.90
3756;DHT22;1893;52.526;13.360;2022-07-19T00:40:31;20.00;99.90
3756;DHT22;1893;52.526;13.360;2022-07-19T00:42:57;20.00;99.90
3756;DHT22;1893;52.526;13.360;2022-07-19T00:45:22;20.00;99.90
3756;DHT22;1893;52.526;13.360;2022-07-19T00:47:48;20.00;99.90
3756;DHT22;1893;52.526;13.360;2022-07-19T00:50:14;19.90;99.90
3756;DHT22;1893;52.526;13.360;2022-07-19T00:52:39;19.90;99.90
3756;DHT22;1893;52.526;13.360;2022-07-19T00:55:08;19.80;99.90
3756;DHT22;1893;52.526;13.360;2022-07-19T00:57:34;19.80;99.90
3756;DHT22;1893;52.526;13.360;2022-07-19T01:00:00;19.70;99.90
3756;DHT22;1893;52.526;13.360;2022-07-19T01:02:27;19.80;99.90
3756;DHT22;1893;52.526;13.360;2022-07-19T01:04:54;19.80;99.90
3756;DHT22;1893;52.526;13.360;2022-07-19T01:07:20;19.70;99.90
3756;DHT22;1893;52.526;13.360;2022-07-19T01:09:45;19.70;99.90
3756;DHT22;1893;52.526;13.360;2022-07-19T01:12:11;19.70;99.90
3756;DHT22;1893;52.526;13.360;2022-07-19T01:14:37;19.60;99.90
3756;DHT22;1893;52.526;13.360;2022-07-19T01:17:03;19.60;99.90
3756;DHT22;1893;52.526;13.360;2022-07-19T01:19:29;19.60;99.90
3756;DHT22;1893;52.526;13.360;2022-07-19T01:21:55;19.60;99.90
3756;DHT22;1893;52.526;13.360;2022-07-19T01:24:20;19.50;99.90
3756;DHT22;1893;52.526;13.360;2022-07-19T01:26:46;19.50;99.90
3756;DHT22;1893;52.526;13.360;2022-07-19T01:29:16;19.50;99.90
3756;DHT22;1893;52.526;13.360;2022-07-19T01:31:42;19.40;99.90
3756;DHT22;1893;52.526;13.360;2022-07-19T01:34:07;19.30;99.90
3756;DHT22;1893;52.526;13.360;2022-07-19T01:36:33;19.40;99.90
3756;DHT22;1893;52.526;13.360;2022-07-19T01:38:59;19.40;99.90
3756;DHT22;1893;52.526;13.360;2022-07-19T01:41:24;19.40;99.90
3756;DHT22;1893;52.526;13.360;2022-07-19T01:43:50;19.40;99.90
3756;DHT22;1893;52.526;13.360;2022-07-19T01:46:15;19.30;99.90
3756;DHT22;1893;52.526;13.360;2022-07-19T01:48:41;19.20;99.90
3756;DHT22;1893;52.526;13.360;2022-07-19T01:51:07;19.30;99.90
3756;DHT22;1893;52.526;13.360;2022-07-19T01:53:32;19.20;99.90
3756;DHT22;1893;52.526;13.360;2022-07-19T01:55:58;19.20;99.90
3756;DHT22;1893;52.526;13.360;2022-07-19T01:58:24;19.20;99.90
3756;DHT22;1893;52.526;13.360;2022-07-19T02:00:50;19.10;99.90
3756;DHT22;1893;52.526;13.360;2022-07-19T02:03:16;19.20;99.90
3756;DHT22;1893;52.526;13.360;2022-07-19T02:05:43;19.10;99.90
3756;DHT22;1893;52.526;13.360;2022-07-19T02:08:09;19.10;99.90
3756;DHT22;1893;52.526;13.360;2022-07-19T02:10:34;19.20;99.90
3756;DHT22;1893;52.526;13.360;2022-07-19T02:13:00;19.10;99.90
3756;DHT22;1893;52.526;13.360;2022-07-19T02:15:26;19.10;99.90
3756;DHT22;1893;52.526;13.360;2022-07-19T02:17:51;19.10;99.90
3756;DHT22;1893;52.526;13.360;2022-07-19T02:20:17;19.10;99.90
3756;DHT22;1893;52.526;13.360;2022-07-19T02:22:43;19.00;99.90
3756;DHT22;1893;52.526;13.360;2022-07-19T02:25:09;18.90;99.90
3756;DHT22;1893;52.526;13.360;2022-07-19T02:27:35;18.90;99.90
3756;DHT22;1893;52.526;13.360;2022-07-19T02:30:01;18.90;99.90
3756;DHT22;1893;52.526;13.360;2022-07-19T02:32:26;18.90;99.90
3756;DHT22;1893;52.526;13.360;2022-07-19T02:34:52;19.00;99.90
3756;DHT22;1893;52.526;13.360;2022-07-19T02:37:17;18.80;99.90
3756;DHT22;1893;52.526;13.360;2022-07-19T02:39:43;18.70;99.90
3756;DHT22;1893;52.526;13.360;2022-07-19T02:42:08;18.70;99.90
3756;DHT22;1893;52.526;13.360;2022-07-19T02:44:34;18.80;99.90
3756;DHT22;1893;52.526;13.360;2022-07-19T02:46:59;18.70;99.90
3756;DHT22;1893;52.526;13.360;2022-07-19T02:49:25;18.70;99.90
3756;DHT22;1893;52.526;13.360;2022-07-19T02:51:50;18.70;99.90
3756;DHT22;1893;52.526;13.360;2022-07-19T02:54:16;18.70;99.90
3756;DHT22;1893;52.526;13.360;2022-07-19T02:56:42;18.70;99.90
3756;DHT22;1893;52.526;13.360;2022-07-19T02:59:07;18.70;99.90
3756;DHT22;1893;52.526;13.360;2022-07-19T03:01:33;18.70;99.90
3756;DHT22;1893;52.526;13.360;2022-07-19T03:03:58;18.60;99.90
3756;DHT22;1893;52.526;13.360;2022-07-19T03:06:25;18.60;99.90
3756;DHT22;1893;52.526;13.360;2022-07-19T03:08:51;18.60;99.90
3756;DHT22;1893;52.526;13.360;2022-07-19T03:11:17;18.50;99.90
3756;DHT22;1893;52.526;13.360;2022-07-19T03:13:43;18.60;99.90
3756;DHT22;1893;52.526;13.360;2022-07-19T03:16:09;18.60;99.90
3756;DHT22;1893;52.526;13.360;2022-07-19T03:18:34;18.50;99.90
3756;DHT22;1893;52.526;13.360;2022-07-19T03:21:00;18.50;99.90
3756;DHT22;1893;52.526;13.360;2022-07-19T03:23:27;18.40;99.90
3756;DHT22;1893;52.526;13.360;2022-07-19T03:25:53;18.40;99.90
3756;DHT22;1893;52.526;13.360;2022-07-19T03:28:18;18.50;99.90
3756;DHT22;1893;52.526;13.360;2022-07-19T03:30:44;18.40;99.90
3756;DHT22;1893;52.526;13.360;2022-07-19T03:33:10;18.40;99.90
3756;DHT22;1893;52.526;13.360;2022-07-19T03:35:36;18.30;99.90
3756;DHT22;1893;52.526;13.360;2022-07-19T03:38:01;18.40;99.90
3756;DHT22;1893;52.526;13.360;2022-07-19T03:40:27;18.40;99.90
3756;DHT22;1893;52.526;13.360;2022-07-19T03:42:52;18.40;99.90
3756;DHT22;1893;52.526;13.360;2022-07-19T03:45:18;18.40;99.90
3756;DHT22;1893;52.526;13.360;2022-07-19T03:47:44;18.40;99.90
3756;DHT22;1893;52.526;13.360;2022-07-19T03:50:09;18.40;99.90
3756;DHT22;1893;52.526;13.360;2022-07-19T03:52:35;18.50;99.90
3756;DHT22;1893;52.526;13.360;2022-07-19T03:55:00;18.50;99.90
3756;DHT22;1893;52.526;13.360;2022-07-19T03:57:26;18.50;99.90
3756;DHT22;1893;52.526;13.360;2022-07-19T03:59:51;18.50;99.90
3756;DHT22;1893;52.526;13.360;2022-07-19T04:02:17;18.50;99.90
3756;DHT22;1893;52.526;13.360;2022-07-19T04:04:42;18.50;99.90
3756;DHT22;1893;52.526;13.360;2022-07-19T04:07:08;18.60;99.90
3756;DHT22;1893;52.526;13.360;2022-07-19T04:09:34;18.60;99.90
3756;DHT22;1893;52.526;13.360;2022-07-19T04:11:59;18.50;99.90
3756;DHT22;1893;52.526;13.360;2022-07-19T04:14:25;18.60;99.90
3756;DHT22;1893;52.526;13.360;2022-07-19T04:16:50;18.60;99.90
3756;DHT22;1893;52.526;13.360;2022-07-19T04:19:16;18.70;99.90
3756;DHT22;1893;52.526;13.360;2022-07-19T04:21:42;18.70;99.90
3756;DHT22;1893;52.526;13.360;2022-07-19T04:24:07;18.60;99.90
3756;DHT22;1893;52.526;13.360;2022-07-19T04:26:33;18.70;99.90
3756;DHT22;1893;52.526;13.360;2022-07-19T04:28:58;18.80;99.90
3756;DHT22;1893;52.526;13.360;2022-07-19T04:31:24;19.00;99.90
3756;DHT22;1893;52.526;13.360;2022-07-19T04:33:49;19.10;99.90
3756;DHT22;1893;52.526;13.360;2022-07-19T04:36:16;19.20;99.90
3756;DHT22;1893;52.526;13.360;2022-07-19T04:38:41;19.40;99.90
3756;DHT22;1893;52.526;13.360;2022-07-19T04:41:07;19.40;99.90
3756;DHT22;1893;52.526;13.360;2022-07-19T04:43:32;19.50;99.90
3756;DHT22;1893;52.526;13.360;2022-07-19T04:45:58;19.60;99.90
3756;DHT22;1893;52.526;13.360;2022-07-19T04:48:26;19.70;99.90
3756;DHT22;1893;52.526;13.360;2022-07-19T04:50:51;19.80;99.90
3756;DHT22;1893;52.526;13.360;2022-07-19T04:53:17;19.90;99.90
3756;DHT22;1893;52.526;13.360;2022-07-19T04:55:42;20.00;99.90
3756;DHT22;1893;52.526;13.360;2022-07-19T04:58:08;20.10;99.90
3756;DHT22;1893;52.526;13.360;2022-07-19T05:00:33;20.10;99.90
3756;DHT22;1893;52.526;13.360;2022-07-19T05:02:59;20.20;99.90
3756;DHT22;1893;52.526;13.360;2022-07-19T05:05:25;20.30;99.90
3756;DHT22;1893;52.526;13.360;2022-07-19T05:07:50;20.20;99.90
3756;DHT22;1893;52.526;13.360;2022-07-19T05:10:16;20.30;99.90
3756;DHT22;1893;52.526;13.360;2022-07-19T05:12:41;20.40;99.90
3756;DHT22;1893;52.526;13.360;2022-07-19T05:15:07;20.50;99.90
3756;DHT22;1893;52.526;13.360;2022-07-19T05:17:33;20.60;99.90
3756;DHT22;1893;52.526;13.360;2022-07-19T05:19:59;20.60;99.90
3756;DHT22;1893;52.526;13.360;2022-07-19T05:22:25;20.70;99.90
3756;DHT22;1893;52.526;13.360;2022-07-19T05:24:52;20.90;99.90
3756;DHT22;1893;52.526;13.360;2022-07-19T05:27:18;20.90;99.90
3756;DHT22;1893;52.526;13.360;2022-07-19T05:29:44;21.00;99.90
3756;DHT22;1893;52.526;13.360;2022-07-19T05:32:10;21.10;99.90
3756;DHT22;1893;52.526;13.360;2022-07-19T05:34:35;21.20;99.90
3756;DHT22;1893;52.526;13.360;2022-07-19T05:37:01;21.30;99.90
3756;DHT22;1893;52.526;13.360;2022-07-19T05:39:26;21.40;99.90
3756;DHT22;1893;52.526;13.360;2022-07-19T05:41:52;21.60;99.90
3756;DHT22;1893;52.526;13.360;2022-07-19T05:44:17;21.60;99.90
3756;DHT22;1893;52.526;13.360;2022-07-19T05:46:43;21.60;99.90
3756;DHT22;1893;52.526;13.360;2022-07-19T05:49:09;21.70;99.90
3756;DHT22;1893;52.526;13.360;2022-07-19T05:51:35;21.80;99.90
3756;DHT22;1893;52.526;13.360;2022-07-19T05:54:01;22.10;99.90
3756;DHT22;1893;52.526;13.360;2022-07-19T05:56:27;22.10;99.90
3756;DHT22;1893;52.526;13.360;2022-07-19T05:58:53;22.10;99.90
3756;DHT22;1893;52.526;13.360;2022-07-19T06:01:19;22.20;99.90
3756;DHT22;1893;52.526;13.360;2022-07-19T06:03:53;22.20;99.90
3756;DHT22;1893;52.526;13.360;2022-07-19T06:06:20;22.40;99.90
3756;DHT22;1893;52.526;13.360;2022-07-19T06:08:46;22.60;99.90
3756;DHT22;1893;52.526;13.360;2022-07-19T06:11:12;22.70;99.90
3756;DHT22;1893;52.526;13.360;2022-07-19T06:13:37;22.80;99.90
3756;DHT22;1893;52.526;13.360;2022-07-19T06:16:04;22.90;99.90
3756;DHT22;1893;52.526;13.360;2022-07-19T06:18:30;22.90;99.90
3756;DHT22;1893;52.526;13.360;2022-07-19T06:21:18;23.10;99.90
3756;DHT22;1893;52.526;13.360;2022-07-19T06:23:45;23.20;99.90
3756;DHT22;1893;52.526;13.360;2022-07-19T06:26:11;23.30;99.90
3756;DHT22;1893;52.526;13.360;2022-07-19T06:28:38;23.30;99.90
3756;DHT22;1893;52.526;13.360;2022-07-19T06:31:03;23.40;99.90
3756;DHT22;1893;52.526;13.360;2022-07-19T06:33:29;23.60;99.90
3756;DHT22;1893;52.526;13.360;2022-07-19T06:35:55;23.70;99.90
3756;DHT22;1893;52.526;13.360;2022-07-19T06:38:20;23.90;99.90
3756;DHT22;1893;52.526;13.360;2022-07-19T06:40:46;24.10;98.00
3756;DHT22;1893;52.526;13.360;2022-07-19T06:43:11;24.20;97.70
3756;DHT22;1893;52.526;13.360;2022-07-19T06:45:38;24.20;97.70
3756;DHT22;1893;52.526;13.360;2022-07-19T06:48:03;24.20;90.00
3756;DHT22;1893;52.526;13.360;2022-07-19T06:50:29;24.30;82.60
3756;DHT22;1893;52.526;13.360;2022-07-19T06:52:55;24.50;89.60
3756;DHT22;1893;52.526;13.360;2022-07-19T06:55:20;24.70;87.20
3756;DHT22;1893;52.526;13.360;2022-07-19T06:57:46;24.80;84.60
3756;DHT22;1893;52.526;13.360;2022-07-19T07:00:12;24.70;66.70
3756;DHT22;1893;52.526;13.360;2022-07-19T07:02:41;24.90;66.50
3756;DHT22;1893;52.526;13.360;2022-07-19T07:05:08;25.10;70.30
3756;DHT22;1893;52.526;13.360;2022-07-19T07:07:36;25.20;66.80
3756;DHT22;1893;52.526;13.360;2022-07-19T07:10:03;25.40;58.40
3756;DHT22;1893;52.526;13.360;2022-07-19T07:12:29;25.50;58.80
3756;DHT22;1893;52.526;13.360;2022-07-19T07:14:55;25.80;69.30
3756;DHT22;1893;52.526;13.360;2022-07-19T07:19:46;26.10;65.60
3756;DHT22;1893;52.526;13.360;2022-07-19T07:22:11;26.10;59.70
3756;DHT22;1893;52.526;13.360;2022-07-19T07:24:37;26.00;54.70
3756;DHT22;1893;52.526;13.360;2022-07-19T07:27:03;26.10;62.80
3756;DHT22;1893;52.526;13.360;2022-07-19T07:29:28;26.30;59.50
3756;DHT22;1893;52.526;13.360;2022-07-19T07:31:54;26.60;58.60
3756;DHT22;1893;52.526;13.360;2022-07-19T07:34:19;26.70;58.10
3756;DHT22;1893;52.526;13.360;2022-07-19T07:36:45;26.70;58.30
3756;DHT22;1893;52.526;13.360;2022-07-19T07:39:12;27.00;60.90
3756;DHT22;1893;52.526;13.360;2022-07-19T07:41:38;27.30;60.20
3756;DHT22;1893;52.526;13.360;2022-07-19T07:44:03;27.40;61.70
3756;DHT22;1893;52.526;13.360;2022-07-19T07:46:29;27.80;58.70
3756;DHT22;1893;52.526;13.360;2022-07-19T07:48:55;28.20;58.90
3756;DHT22;1893;52.526;13.360;2022-07-19T07:51:20;28.40;57.20
3756;DHT22;1893;52.526;13.360;2022-07-19T07:53:46;28.60;55.00
3756;DHT22;1893;52.526;13.360;2022-07-19T07:56:12;29.00;55.70
3756;DHT22;1893;52.526;13.360;2022-07-19T07:58:37;28.80;52.90
3756;DHT22;1893;52.526;13.360;2022-07-19T08:01:03;28.80;53.90
3756;DHT22;1893;52.526;13.360;2022-07-19T08:03:29;28.70;49.80
3756;DHT22;1893;52.526;13.360;2022-07-19T08:05:54;28.70;50.00
3756;DHT22;1893;52.526;13.360;2022-07-19T08:08:23;28.60;49.60
3756;DHT22;1893;52.526;13.360;2022-07-19T08:10:52;28.50;49.10
3756;DHT22;1893;52.526;13.360;2022-07-19T08:13:18;28.70;49.70
3756;DHT22;1893;52.526;13.360;2022-07-19T08:15:43;28.80;48.60
3756;DHT22;1893;52.526;13.360;2022-07-19T08:18:09;28.70;47.20
3756;DHT22;1893;52.526;13.360;2022-07-19T08:20:34;28.90;50.30
3756;DHT22;1893;52.526;13.360;2022-07-19T08:23:00;29.00;48.30
3756;DHT22;1893;52.526;13.360;2022-07-19T08:25:26;28.90;46.50
3756;DHT22;1893;52.526;13.360;2022-07-19T08:27:51;29.10;47.50
3756;DHT22;1893;52.526;13.360;2022-07-19T08:30:17;29.10;46.60
3756;DHT22;1893;52.526;13.360;2022-07-19T08:32:43;29.10;44.80
3756;DHT22;1893;52.526;13.360;2022-07-19T08:35:09;29.20;43.80
3756;DHT22;1893;52.526;13.360;2022-07-19T08:37:35;29.20;43.60
3756;DHT22;1893;52.526;13.360;2022-07-19T08:40:02;29.30;43.10
3756;DHT22;1893;52.526;13.360;2022-07-19T08:42:28;29.50;45.00
3756;DHT22;1893;52.526;13.360;2022-07-19T08:44:55;29.60;45.40
3756;DHT22;1893;52.526;13.360;2022-07-19T08:47:23;29.80;48.20
3756;DHT22;1893;52.526;13.360;2022-07-19T08:49:50;29.90;48.00
3756;DHT22;1893;52.526;13.360;2022-07-19T08:52:16;30.10;47.70
3756;DHT22;1893;52.526;13.360;2022-07-19T08:54:41;30.20;49.10
3756;DHT22;1893;52.526;13.360;2022-07-19T08:57:07;30.10;44.90
3756;DHT22;1893;52.526;13.360;2022-07-19T08:59:51;30.10;43.70
3756;DHT22;1893;52.526;13.360;2022-07-19T09:02:17;30.20;43.70
3756;DHT22;1893;52.526;13.360;2022-07-19T09:04:42;30.30;42.30
3756;DHT22;1893;52.526;13.360;2022-07-19T09:07:08;30.50;45.40
3756;DHT22;1893;52.526;13.360;2022-07-19T09:09:34;30.70;44.10
3756;DHT22;1893;52.526;13.360;2022-07-19T09:12:03;30.60;43.20
3756;DHT22;1893;52.526;13.360;2022-07-19T09:14:31;30.90;45.00
3756;DHT22;1893;52.526;13.360;2022-07-19T09:17:04;31.00;44.60
3756;DHT22;1893;52.526;13.360;2022-07-19T09:19:36;30.90;44.00
3756;DHT22;1893;52.526;13.360;2022-07-19T09:22:12;30.80;41.00
3756;DHT22;1893;52.526;13.360;2022-07-19T09:24:45;30.60;37.40
3756;DHT22;1893;52.526;13.360;2022-07-19T09:27:13;30.60;35.10
3756;DHT22;1893;52.526;13.360;2022-07-19T09:29:41;30.80;36.40
3756;DHT22;1893;52.526;13.360;2022-07-19T09:37:26;31.10;35.00
3756;DHT22;1893;52.526;13.360;2022-07-19T09:39:55;31.50;38.00
3756;DHT22;1893;52.526;13.360;2022-07-19T09:42:23;31.80;38.20
3756;DHT22;1893;52.526;13.360;2022-07-19T09:45:00;32.00;38.80
3756;DHT22;1893;52.526;13.360;2022-07-19T09:47:44;32.10;37.90
3756;DHT22;1893;52.526;13.360;2022-07-19T09:50:14;32.10;35.00
3756;DHT22;1893;52.526;13.360;2022-07-19T09:52:43;32.30;34.40
3756;DHT22;1893;52.526;13.360;2022-07-19T09:55:09;32.50;34.70
3756;DHT22;1893;52.526;13.360;2022-07-19T09:57:40;32.60;34.30
3756;DHT22;1893;52.526;13.360;2022-07-19T10:00:07;33.10;36.60
3756;DHT22;1893;52.526;13.360;2022-07-19T10:02:36;33.80;40.30
3756;DHT22;1893;52.526;13.360;2022-07-19T10:05:03;34.50;43.10
3756;DHT22;1893;52.526;13.360;2022-07-19T10:07:29;35.30;46.50
3756;DHT22;1893;52.526;13.360;2022-07-19T10:09:56;35.90;47.20
3756;DHT22;1893;52.526;13.360;2022-07-19T10:12:22;36.10;43.40
3756;DHT22;1893;52.526;13.360;2022-07-19T10:14:48;36.70;43.90
3756;DHT22;1893;52.526;13.360;2022-07-19T10:19:44;38.00;38.30
3756;DHT22;1893;52.526;13.360;2022-07-19T10:22:15;38.20;32.60
3756;DHT22;1893;52.526;13.360;2022-07-19T10:32:30;37.40;6.10
3756;DHT22;1893;52.526;13.360;2022-07-19T10:37:46;37.90;1.00
3756;DHT22;1893;52.526;13.360;2022-07-19T10:40:12;38.30;1.00
3756;DHT22;1893;52.526;13.360;2022-07-19T10:48:35;38.60;1.00
3756;DHT22;1893;52.526;13.360;2022-07-19T10:51:01;38.80;1.00
3756;DHT22;1893;52.526;13.360;2022-07-19T10:53:54;37.90;1.00
3756;DHT22;1893;52.526;13.360;2022-07-19T10:56:58;38.60;1.00
3756;DHT22;1893;52.526;13.360;2022-07-19T10:59:33;38.90;1.00
3756;DHT22;1893;52.526;13.360;2022-07-19T11:01:59;37.10;1.00
3756;DHT22;1893;52.526;13.360;2022-07-19T11:04:31;37.90;1.00
3756;DHT22;1893;52.526;13.360;2022-07-19T11:07:17;37.90;1.00
3756;DHT22;1893;52.526;13.360;2022-07-19T11:09:51;38.60;1.00
3756;DHT22;1893;52.526;13.360;2022-07-19T11:12:26;39.50;1.00
3756;DHT22;1893;52.526;13.360;2022-07-19T11:14:52;38.70;1.00
3756;DHT22;1893;52.526;13.360;2022-07-19T11:17:18;38.90;1.00
3756;DHT22;1893;52.526;13.360;2022-07-19T11:19:59;39.60;1.00
3756;DHT22;1893;52.526;13.360;2022-07-19T11:22:25;39.20;1.00
3756;DHT22;1893;52.526;13.360;2022-07-19T11:24:51;39.70;1.00
3756;DHT22;1893;52.526;13.360;2022-07-19T11:27:17;39.50;1.00
3756;DHT22;1893;52.526;13.360;2022-07-19T11:30:09;40.00;1.00
3756;DHT22;1893;52.526;13.360;2022-07-19T11:32:34;39.30;1.00
3756;DHT22;1893;52.526;13.360;2022-07-19T11:35:08;39.10;1.00
3756;DHT22;1893;52.526;13.360;2022-07-19T11:37:37;38.20;1.00
3756;DHT22;1893;52.526;13.360;2022-07-19T11:40:04;37.90;1.00
3756;DHT22;1893;52.526;13.360;2022-07-19T11:42:37;37.40;1.00
3756;DHT22;1893;52.526;13.360;2022-07-19T11:45:13;36.80;1.00
3756;DHT22;1893;52.526;13.360;2022-07-19T11:47:47;37.30;1.00
3756;DHT22;1893;52.526;13.360;2022-07-19T11:50:17;37.20;1.00
3756;DHT22;1893;52.526;13.360;2022-07-19T11:52:48;37.30;1.00
3756;DHT22;1893;52.526;13.360;2022-07-19T11:55:16;36.70;1.00
3756;DHT22;1893;52.526;13.360;2022-07-19T11:57:42;36.80;1.00
3756;DHT22;1893;52.526;13.360;2022-07-19T12:00:09;36.90;1.00
3756;DHT22;1893;52.526;13.360;2022-07-19T12:03:00;36.80;1.00
3756;DHT22;1893;52.526;13.360;2022-07-19T12:05:38;36.50;1.00
3756;DHT22;1893;52.526;13.360;2022-07-19T12:08:08;36.30;1.00
3756;DHT22;1893;52.526;13.360;2022-07-19T12:13:03;35.80;1.00
3756;DHT22;1893;52.526;13.360;2022-07-19T12:15:52;35.70;1.00
3756;DHT22;1893;52.526;13.360;2022-07-19T12:18:40;35.80;1.00
3756;DHT22;1893;52.526;13.360;2022-07-19T12:35:02;35.60;1.00
3756;DHT22;1893;52.526;13.360;2022-07-19T12:37:35;35.40;1.00
3756;DHT22;1893;52.526;13.360;2022-07-19T12:42:43;35.40;1.00
3756;DHT22;1893;52.526;13.360;2022-07-19T12:45:12;35.40;1.00
3756;DHT22;1893;52.526;13.360;2022-07-19T12:47:38;35.40;1.00
3756;DHT22;1893;52.526;13.360;2022-07-19T12:50:05;35.50;1.00
3756;DHT22;1893;52.526;13.360;2022-07-19T12:52:31;35.20;1.00
3756;DHT22;1893;52.526;13.360;2022-07-19T12:54:56;35.10;1.00
3756;DHT22;1893;52.526;13.360;2022-07-19T12:57:22;35.30;1.00
3756;DHT22;1893;52.526;13.360;2022-07-19T12:59:47;35.20;1.00
3756;DHT22;1893;52.526;13.360;2022-07-19T13:02:14;35.50;1.00
3756;DHT22;1893;52.526;13.360;2022-07-19T13:04:42;35.40;1.00
3756;DHT22;1893;52.526;13.360;2022-07-19T13:07:09;35.40;1.00
3756;DHT22;1893;52.526;13.360;2022-07-19T13:09:36;35.50;1.00
3756;DHT22;1893;52.526;13.360;2022-07-19T13:12:03;35.40;1.00
3756;DHT22;1893;52.526;13.360;2022-07-19T13:14:31;35.10;1.00
3756;DHT22;1893;52.526;13.360;2022-07-19T13:16:56;35.00;1.00
3756;DHT22;1893;52.526;13.360;2022-07-19T13:19:22;35.30;1.00
3756;DHT22;1893;52.526;13.360;2022-07-19T13:21:48;35.20;1.00
3756;DHT22;1893;52.526;13.360;2022-07-19T13:24:14;35.30;1.00
3756;DHT22;1893;52.526;13.360;2022-07-19T13:26:40;35.40;1.00
3756;DHT22;1893;52.526;13.360;2022-07-19T13:29:05;35.20;1.00
3756;DHT22;1893;52.526;13.360;2022-07-19T13:31:31;35.40;1.00
3756;DHT22;1893;52.526;13.360;2022-07-19T13:33:57;35.70;1.00
3756;DHT22;1893;52.526;13.360;2022-07-19T13:36:22;35.60;1.00
3756;DHT22;1893;52.526;13.360;2022-07-19T13:38:48;35.30;1.00
3756;DHT22;1893;52.526;13.360;2022-07-19T13:41:14;35.20;1.00
3756;DHT22;1893;52.526;13.360;2022-07-19T13:43:40;35.40;1.00
3756;DHT22;1893;52.526;13.360;2022-07-19T13:46:06;35.20;1.00
3756;DHT22;1893;52.526;13.360;2022-07-19T13:48:31;35.30;1.00
3756;DHT22;1893;52.526;13.360;2022-07-19T13:50:57;35.40;1.00
3756;DHT22;1893;52.526;13.360;2022-07-19T13:53:23;35.50;1.00
3756;DHT22;1893;52.526;13.360;2022-07-19T13:55:48;35.50;1.00
3756;DHT22;1893;52.526;13.360;2022-07-19T13:58:14;35.40;1.00
3756;DHT22;1893;52.526;13.360;2022-07-19T14:00:41;35.60;1.00
3756;DHT22;1893;52.526;13.360;2022-07-19T14:03:12;35.40;1.00
3756;DHT22;1893;52.526;13.360;2022-07-19T14:05:38;35.40;1.00
3756;DHT22;1893;52.526;13.360;2022-07-19T14:08:04;35.60;1.00
3756;DHT22;1893;52.526;13.360;2022-07-19T14:10:30;35.60;1.00
3756;DHT22;1893;52.526;13.360;2022-07-19T14:12:56;35.50;1.00
3756;DHT22;1893;52.526;13.360;2022-07-19T14:15:21;35.50;1.00
3756;DHT22;1893;52.526;13.360;2022-07-19T14:17:47;35.50;1.00
3756;DHT22;1893;52.526;13.360;2022-07-19T14:20:12;35.30;1.00
3756;DHT22;1893;52.526;13.360;2022-07-19T14:22:38;34.90;1.00
3756;DHT22;1893;52.526;13.360;2022-07-19T14:25:04;34.90;1.00
3756;DHT22;1893;52.526;13.360;2022-07-19T14:27:30;34.80;1.00
3756;DHT22;1893;52.526;13.360;2022-07-19T14:29:55;34.90;1.00
3756;DHT22;1893;52.526;13.360;2022-07-19T14:32:21;34.90;1.00
3756;DHT22;1893;52.526;13.360;2022-07-19T14:34:47;35.00;1.00
3756;DHT22;1893;52.526;13.360;2022-07-19T14:37:12;35.20;1.00
3756;DHT22;1893;52.526;13.360;2022-07-19T14:39:38;35.20;1.00
3756;DHT22;1893;52.526;13.360;2022-07-19T14:42:04;35.10;1.00
3756;DHT22;1893;52.526;13.360;2022-07-19T14:44:30;35.10;1.00
3756;DHT22;1893;52.526;13.360;2022-07-19T14:46:55;34.90;1.00
3756;DHT22;1893;52.526;13.360;2022-07-19T14:49:21;34.80;1.00
3756;DHT22;1893;52.526;13.360;2022-07-19T14:51:47;34.70;1.00
3756;DHT22;1893;52.526;13.360;2022-07-19T14:54:13;34.60;1.00
3756;DHT22;1893;52.526;13.360;2022-07-19T14:56:39;34.70;1.00
3756;DHT22;1893;52.526;13.360;2022-07-19T14:59:05;34.80;1.00
3756;DHT22;1893;52.526;13.360;2022-07-19T15:01:30;34.90;1.00
3756;DHT22;1893;52.526;13.360;2022-07-19T15:03:56;35.00;1.00
3756;DHT22;1893;52.526;13.360;2022-07-19T15:06:21;34.80;1.00
3756;DHT22;1893;52.526;13.360;2022-07-19T15:08:47;34.80;1.00
3756;DHT22;1893;52.526;13.360;2022-07-19T15:11:14;35.00;1.00
3756;DHT22;1893;52.526;13.360;2022-07-19T15:13:39;34.90;1.00
3756;DHT22;1893;52.526;13.360;2022-07-19T15:16:05;34.60;1.00
3756;DHT22;1893;52.526;13.360;2022-07-19T15:18:30;34.80;1.00
3756;DHT22;1893;52.526;13.360;2022-07-19T15:20:57;34.70;1.00
3756;DHT22;1893;52.526;13.360;2022-07-19T15:23:23;34.80;1.00
3756;DHT22;1893;52.526;13.360;2022-07-19T15:25:48;34.80;1.00
3756;DHT22;1893;52.526;13.360;2022-07-19T15:28:14;34.90;1.00
3756;DHT22;1893;52.526;13.360;2022-07-19T15:30:41;34.90;1.00
3756;DHT22;1893;52.526;13.360;2022-07-19T15:33:07;34.90;1.00
3756;DHT22;1893;52.526;13.360;2022-07-19T15:35:33;34.80;1.00
3756;DHT22;1893;52.526;13.360;2022-07-19T15:37:59;34.80;1.00
3756;DHT22;1893;52.526;13.360;2022-07-19T15:40:24;34.90;1.00
3756;DHT22;1893;52.526;13.360;2022-07-19T15:42:51;34.80;1.00
3756;DHT22;1893;52.526;13.360;2022-07-19T15:45:17;34.70;1.00
3756;DHT22;1893;52.526;13.360;2022-07-19T15:47:44;34.70;1.00
3756;DHT22;1893;52.526;13.360;2022-07-19T15:50:11;34.50;1.00
3756;DHT22;1893;52.526;13.360;2022-07-19T15:52:37;34.30;1.00
3756;DHT22;1893;52.526;13.360;2022-07-19T15:55:05;34.10;1.00
3756;DHT22;1893;52.526;13.360;2022-07-19T15:57:31;34.00;1.00
3756;DHT22;1893;52.526;13.360;2022-07-19T15:59:56;33.90;1.00
3756;DHT22;1893;52.526;13.360;2022-07-19T16:02:22;33.80;1.00
3756;DHT22;1893;52.526;13.360;2022-07-19T16:04:49;33.80;1.00
3756;DHT22;1893;52.526;13.360;2022-07-19T16:07:14;33.80;1.00
3756;DHT22;1893;52.526;13.360;2022-07-19T16:09:40;33.80;1.00
3756;DHT22;1893;52.526;13.360;2022-07-19T16:12:06;33.90;1.00
3756;DHT22;1893;52.526;13.360;2022-07-19T16:14:31;33.80;1.00
3756;DHT22;1893;52.526;13.360;2022-07-19T16:16:57;33.80;1.00
3756;DHT22;1893;52.526;13.360;2022-07-19T16:19:22;33.80;1.00
3756;DHT22;1893;52.526;13.360;2022-07-19T16:21:48;33.70;1.00
3756;DHT22;1893;52.526;13.360;2022-07-19T16:24:14;33.60;1.00
3756;DHT22;1893;52.526;13.360;2022-07-19T16:26:40;33.60;1.00
3756;DHT22;1893;52.526;13.360;2022-07-19T16:29:06;33.60;1.00
3756;DHT22;1893;52.526;13.360;2022-07-19T16:31:31;33.50;1.00
3756;DHT22;1893;52.526;13.360;2022-07-19T16:33:57;33.40;1.00
3756;DHT22;1893;52.526;13.360;2022-07-19T16:36:22;33.40;1.00